createdAt,value
2019-05-09T00:00:49.478Z,45.80
2019-05-09T00:06:34.031Z,45.70
2019-05-09T00:11:38.439Z,46.20
2019-05-09T00:16:44.024Z,45.70
2019-05-09T00:21:51.145Z,45.80
2019-05-09T00:26:57.403Z,45.80
2019-05-09T00:32:04.040Z,45.90
2019-05-09T00:37:09.043Z,45.90
2019-05-09T00:42:13.935Z,45.90
2019-05-09T00:47:23.858Z,45.90
2019-05-09T00:52:28.238Z,46.00
2019-05-09T00:57:34.643Z,46.00
2019-05-09T01:02:39.625Z,46.10
2019-05-09T01:07:44.380Z,46.10
2019-05-09T01:12:49.252Z,46.00
2019-05-09T01:17:54.035Z,46.10
2019-05-09T01:22:58.861Z,46.20
2019-05-09T01:28:05.292Z,46.20
2019-05-09T01:33:13.609Z,46.20
2019-05-09T01:38:18.579Z,46.20
2019-05-09T01:43:24.424Z,46.30
2019-05-09T01:48:29.584Z,46.30
2019-05-09T01:53:35.940Z,46.40
2019-05-09T01:58:42.960Z,46.40
2019-05-09T02:03:47.277Z,46.50
2019-05-09T02:08:54.272Z,46.50
2019-05-09T02:13:58.625Z,46.60
2019-05-09T02:19:05.679Z,46.60
2019-05-09T02:24:10.392Z,46.60
2019-05-09T02:29:15.585Z,46.60
2019-05-09T02:34:20.452Z,46.70
2019-05-09T02:39:25.300Z,46.70
2019-05-09T02:44:30.083Z,46.80
2019-05-09T02:49:34.835Z,46.80
2019-05-09T02:54:39.694Z,46.90
2019-05-09T02:59:49.091Z,46.80
2019-05-09T03:04:52.628Z,46.90
2019-05-09T03:09:58.254Z,46.90
2019-05-09T03:15:03.927Z,46.90
2019-05-09T03:20:10.412Z,46.90
2019-05-09T03:25:18.890Z,47.00
2019-05-09T03:30:24.163Z,47.00
2019-05-09T03:35:28.897Z,47.00
2019-05-09T03:40:37.668Z,47.00
2019-05-09T03:45:43.901Z,47.00
2019-05-09T03:50:49.046Z,47.00
2019-05-09T03:55:57.548Z,47.10
2019-05-09T04:01:02.156Z,47.10
2019-05-09T04:06:08.267Z,47.10
2019-05-09T04:11:13.556Z,47.10
2019-05-09T04:16:19.160Z,47.10
2019-05-09T04:21:27.803Z,47.10
2019-05-09T04:26:33.826Z,47.10
2019-05-09T04:31:38.908Z,47.10
2019-05-09T04:36:43.822Z,47.10
2019-05-09T04:41:49.020Z,47.10
2019-05-09T04:46:59.877Z,47.10
2019-05-09T04:52:01.164Z,47.10
2019-05-09T04:57:07.748Z,47.10
2019-05-09T05:02:14.626Z,47.20
2019-05-09T05:07:19.639Z,48.00
2019-05-09T05:12:24.580Z,48.60
2019-05-09T05:17:30.761Z,49.10
2019-05-09T05:22:38.689Z,48.70
2019-05-09T05:27:43.849Z,47.20
2019-05-09T05:32:50.363Z,46.80
2019-05-09T05:37:55.209Z,46.90
2019-05-09T05:42:59.977Z,48.50
2019-05-09T05:48:07.897Z,48.20
2019-05-09T05:53:12.818Z,48.00
2019-05-09T05:58:18.095Z,47.70
2019-05-09T06:03:22.992Z,47.30
2019-05-09T06:08:28.035Z,46.30
2019-05-09T06:13:33.251Z,45.60
2019-05-09T06:18:38.529Z,45.20
2019-05-09T06:23:43.705Z,45.00
2019-05-09T06:28:48.937Z,44.80
2019-05-09T06:33:54.325Z,44.50
2019-05-09T06:38:59.362Z,44.50
2019-05-09T06:44:14.460Z,44.50
2019-05-09T06:49:26.783Z,44.40
2019-05-09T06:54:21.538Z,44.40
2019-05-09T06:59:28.294Z,44.50
2019-05-09T07:04:34.922Z,44.60
2019-05-09T07:09:39.647Z,44.70
2019-05-09T07:14:44.655Z,44.70
2019-05-09T07:19:49.810Z,45.00
2019-05-09T07:25:00.844Z,45.50
2019-05-09T07:30:17.996Z,45.30
2019-05-09T07:35:24.501Z,45.00
2019-05-09T07:40:30.780Z,44.60
2019-05-09T07:45:38.451Z,44.40
2019-05-09T07:50:43.454Z,43.90
2019-05-09T07:55:49.510Z,43.30
2019-05-09T08:00:59.156Z,42.70
2019-05-09T08:06:01.770Z,42.40
2019-05-09T08:11:08.902Z,42.40
2019-05-09T08:16:14.780Z,42.20
2019-05-09T08:21:19.940Z,42.50
2019-05-09T08:26:24.951Z,42.70
2019-05-09T08:31:30.027Z,42.70
2019-05-09T08:36:35.335Z,43.00
2019-05-09T08:41:40.585Z,44.10
2019-05-09T08:46:47.972Z,44.90
2019-05-09T08:52:09.220Z,45.60
2019-05-09T08:57:01.136Z,46.30
2019-05-09T09:02:18.535Z,47.00
2019-05-09T09:07:12.781Z,47.70
2019-05-09T09:12:29.447Z,48.60
2019-05-09T09:17:25.050Z,49.30
2019-05-09T09:22:29.959Z,50.10
2019-05-09T09:27:34.962Z,50.60
2019-05-09T09:32:40.247Z,51.30
2019-05-09T09:37:51.841Z,51.80
2019-05-09T09:42:52.959Z,52.40
2019-05-09T09:47:59.248Z,52.70
2019-05-09T09:53:04.469Z,53.10
2019-05-09T09:58:09.455Z,53.70
2019-05-09T10:03:14.407Z,54.50
2019-05-09T10:08:20.507Z,54.10
2019-05-09T10:13:25.381Z,54.50
2019-05-09T10:18:31.999Z,54.50
2019-05-09T10:23:37.887Z,54.60
2019-05-09T10:28:45.473Z,54.70
2019-05-09T10:33:50.636Z,55.00
2019-05-09T10:38:58.215Z,55.10
2019-05-09T10:44:04.157Z,55.30
2019-05-09T10:49:09.978Z,55.40
2019-05-09T10:54:15.219Z,55.60
2019-05-09T10:59:20.101Z,55.70
2019-05-09T11:04:24.938Z,55.80
2019-05-09T11:09:30.441Z,55.80
2019-05-09T11:14:37.412Z,55.60
2019-05-09T11:19:42.309Z,55.90
2019-05-09T11:24:50.951Z,54.90
2019-05-09T11:29:54.510Z,54.50
2019-05-09T11:34:59.590Z,54.20
2019-05-09T11:40:06.200Z,53.90
2019-05-09T11:45:11.128Z,53.70
2019-05-09T11:50:19.800Z,53.40
2019-05-09T11:55:34.985Z,53.50
2019-05-09T12:00:29.584Z,53.50
2019-05-09T12:05:34.663Z,53.50
2019-05-09T12:10:40.859Z,53.50
2019-05-09T12:15:48.726Z,53.40
2019-05-09T12:20:52.400Z,53.30
2019-05-09T12:26:33.739Z,53.20
2019-05-09T12:31:38.942Z,53.10
2019-05-09T12:36:44.424Z,53.00
2019-05-09T12:41:49.542Z,52.90
2019-05-09T12:46:54.725Z,52.90
2019-05-09T12:52:00.803Z,52.90
2019-05-09T12:57:07.938Z,52.90
2019-05-09T13:02:12.302Z,52.70
2019-05-09T13:07:17.345Z,52.80
2019-05-09T13:12:22.959Z,53.10
2019-05-09T13:17:30.683Z,53.30
2019-05-09T13:22:35.642Z,53.50
2019-05-09T13:27:40.473Z,53.50
2019-05-09T13:32:48.196Z,53.50
2019-05-09T13:37:52.205Z,53.50
2019-05-09T13:43:00.668Z,53.40
2019-05-09T13:48:23.918Z,53.40
2019-05-09T13:53:12.331Z,53.30
2019-05-09T13:58:19.621Z,53.40
2019-05-09T14:03:23.931Z,53.60
2019-05-09T14:08:28.872Z,53.70
2019-05-09T14:13:33.826Z,53.80
2019-05-09T14:18:38.888Z,53.80
2019-05-09T14:23:59.162Z,53.80
2019-05-09T14:28:50.759Z,53.90
2019-05-09T14:33:55.700Z,53.80
2019-05-09T14:39:00.541Z,53.80
2019-05-09T14:44:09.415Z,53.80
2019-05-09T14:49:13.172Z,53.90
2019-05-09T14:54:18.748Z,53.20
2019-05-09T14:59:23.635Z,53.80
2019-05-09T15:04:28.850Z,53.80
2019-05-09T15:09:33.795Z,53.90
2019-05-09T15:14:38.856Z,53.80
2019-05-09T15:19:56.411Z,53.80
2019-05-09T15:24:50.430Z,53.90
2019-05-09T15:29:58.266Z,53.90
2019-05-09T15:35:02.208Z,53.90
2019-05-09T15:40:08.640Z,53.90
2019-05-09T15:45:14.337Z,54.00
2019-05-09T15:50:23.135Z,53.90
2019-05-09T15:55:28.248Z,53.90
2019-05-09T16:00:32.827Z,53.90
2019-05-09T16:05:38.574Z,53.90
2019-05-09T16:10:43.593Z,54.00
2019-05-09T16:15:48.702Z,53.90
2019-05-09T16:20:54.928Z,53.90
2019-05-09T16:25:59.947Z,53.90
2019-05-09T16:31:04.900Z,53.90
2019-05-09T16:36:09.903Z,53.90
2019-05-09T16:41:14.706Z,53.90
2019-05-09T16:46:19.921Z,54.00
2019-05-09T16:51:25.145Z,53.90
2019-05-09T16:56:30.010Z,54.00
2019-05-09T17:01:39.420Z,54.00
2019-05-09T17:06:43.252Z,54.00
2019-05-09T17:11:48.276Z,54.00
2019-05-09T17:16:53.301Z,54.10
2019-05-09T17:21:59.837Z,54.00
2019-05-09T17:27:05.711Z,54.00
2019-05-09T17:32:10.602Z,54.00
2019-05-09T17:37:17.578Z,54.00
2019-05-09T17:42:22.112Z,54.10
2019-05-09T17:47:28.399Z,54.00
2019-05-09T17:52:33.493Z,54.00
2019-05-09T17:57:38.907Z,54.00
2019-05-09T18:02:44.167Z,54.00
2019-05-09T18:07:49.182Z,54.10
2019-05-09T18:12:53.983Z,54.10
2019-05-09T18:17:58.775Z,54.00
2019-05-09T18:23:03.716Z,54.00
2019-05-09T18:28:08.755Z,54.00
2019-05-09T18:33:15.367Z,54.00
2019-05-09T18:38:23.086Z,54.00
2019-05-09T18:43:27.908Z,54.00
2019-05-09T18:48:33.058Z,54.10
2019-05-09T18:53:37.862Z,54.10
2019-05-09T18:58:42.630Z,54.00
2019-05-09T19:03:47.595Z,54.00
2019-05-09T19:08:52.393Z,54.00
2019-05-09T19:13:58.344Z,54.00
2019-05-09T19:19:05.218Z,54.00
2019-05-09T19:24:10.429Z,54.00
2019-05-09T19:29:15.675Z,53.90
2019-05-09T19:34:20.732Z,53.90
2019-05-09T19:40:02.419Z,54.00
2019-05-09T19:45:08.259Z,53.90
2019-05-09T19:50:13.353Z,54.00
2019-05-09T19:55:19.951Z,53.90
2019-05-09T20:00:26.614Z,53.90
2019-05-09T20:05:31.783Z,54.00
2019-05-09T20:10:38.372Z,53.90
2019-05-09T20:15:43.455Z,54.00
2019-05-09T20:20:48.415Z,53.90
2019-05-09T20:25:53.455Z,54.60
2019-05-09T20:30:58.408Z,53.90
2019-05-09T20:36:03.378Z,53.70
2019-05-09T20:41:08.576Z,54.00
2019-05-09T20:46:13.645Z,53.90
2019-05-09T20:51:18.988Z,53.90
2019-05-09T20:56:25.260Z,53.90
2019-05-09T21:01:30.839Z,53.90
2019-05-09T21:06:36.003Z,53.90
2019-05-09T21:11:41.312Z,53.90
2019-05-09T21:16:46.571Z,53.90
2019-05-09T21:21:51.721Z,54.00
2019-05-09T21:26:57.734Z,54.00
2019-05-09T21:32:02.791Z,53.90
2019-05-09T21:37:08.230Z,53.90
2019-05-09T21:42:14.520Z,53.90
2019-05-09T21:47:22.765Z,53.90
2019-05-09T21:52:27.748Z,53.90
2019-05-09T21:57:32.512Z,53.90
2019-05-09T22:02:37.429Z,53.90
2019-05-09T22:07:42.363Z,53.90
2019-05-09T22:12:47.242Z,54.00
2019-05-09T22:17:52.085Z,54.00
2019-05-09T22:22:57.042Z,54.00
2019-05-09T22:28:01.808Z,54.00
2019-05-09T22:33:06.605Z,54.70
2019-05-09T22:38:11.344Z,54.00
2019-05-09T22:43:16.189Z,54.20
2019-05-09T22:48:20.925Z,54.00
2019-05-09T22:53:26.143Z,54.00
2019-05-09T22:58:30.902Z,54.10
2019-05-09T23:03:35.747Z,54.10
2019-05-09T23:08:40.614Z,54.10
2019-05-09T23:13:46.990Z,54.00
2019-05-09T23:18:51.939Z,54.00
2019-05-09T23:23:58.429Z,54.10
2019-05-09T23:29:03.246Z,54.00
2019-05-09T23:34:08.123Z,54.00
2019-05-09T23:39:14.589Z,54.00
2019-05-09T23:44:19.415Z,54.00
2019-05-09T23:49:24.161Z,54.10
2019-05-09T23:54:44.601Z,53.90
2019-05-09T23:59:39.418Z,54.00
